createdAt,value
2022-10-17T00:00:40.480Z,79.84
2022-10-17T00:06:09.834Z,80.69
2022-10-17T00:11:20.108Z,81.39
2022-10-17T00:16:29.841Z,81.34
2022-10-17T00:21:36.307Z,81.12
2022-10-17T00:26:42.352Z,80.62
2022-10-17T00:31:50.236Z,80.92
2022-10-17T00:36:56.704Z,80.76
2022-10-17T00:42:04.191Z,81.17
2022-10-17T00:47:14.918Z,81.81
2022-10-17T00:52:25.945Z,81.95
2022-10-17T00:57:34.678Z,82.04
2022-10-17T01:02:42.674Z,81.95
2022-10-17T01:07:50.909Z,82.25
2022-10-17T01:13:13.031Z,82.36
2022-10-17T01:18:43.900Z,82.58
2022-10-17T01:24:05.407Z,82.94
2022-10-17T01:29:39.349Z,82.31
2022-10-17T01:34:56.964Z,81.91
2022-10-17T01:40:11.067Z,81.90
2022-10-17T01:45:26.749Z,81.75
2022-10-17T01:50:40.666Z,82.08
2022-10-17T01:55:50.742Z,81.84
2022-10-17T02:01:01.675Z,81.82
2022-10-17T02:06:12.319Z,82.03
2022-10-17T02:11:21.875Z,82.06
2022-10-17T02:16:39.930Z,81.62
2022-10-17T02:21:55.003Z,81.32
2022-10-17T02:27:08.305Z,80.98
2022-10-17T02:37:32.782Z,80.62
2022-10-17T02:42:40.783Z,81.22
2022-10-17T02:47:56.404Z,81.12
2022-10-17T02:53:10.209Z,81.92
2022-10-17T02:58:22.346Z,81.81
2022-10-17T03:03:30.647Z,82.10
2022-10-17T03:08:41.676Z,82.65
2022-10-17T03:13:47.669Z,83.09
2022-10-17T03:18:55.912Z,83.25
2022-10-17T03:24:03.344Z,82.74
2022-10-17T03:29:09.464Z,83.11
2022-10-17T03:34:17.005Z,83.26
2022-10-17T03:39:25.312Z,83.20
2022-10-17T03:44:33.318Z,83.35
2022-10-17T03:49:39.264Z,83.75
2022-10-17T03:54:46.775Z,83.24
2022-10-17T03:59:52.976Z,83.21
2022-10-17T04:04:59.915Z,84.10
2022-10-17T04:10:09.143Z,83.52
2022-10-17T04:15:15.254Z,83.07
2022-10-17T04:20:21.334Z,82.85
2022-10-17T04:25:32.272Z,82.81
2022-10-17T04:30:43.593Z,82.66
2022-10-17T04:35:59.211Z,83.14
2022-10-17T04:41:09.858Z,82.83
2022-10-17T04:46:17.515Z,82.54
2022-10-17T04:51:26.785Z,82.58
2022-10-17T04:56:57.099Z,82.98
2022-10-17T05:02:03.317Z,82.55
2022-10-17T05:07:10.180Z,83.08
2022-10-17T05:12:32.340Z,82.94
2022-10-17T05:17:39.556Z,83.15
2022-10-17T05:22:47.213Z,83.47
2022-10-17T05:27:54.938Z,84.20
2022-10-17T05:33:01.445Z,84.28
2022-10-17T05:38:08.601Z,84.63
2022-10-17T05:43:17.531Z,84.27
2022-10-17T05:48:26.223Z,83.91
2022-10-17T05:53:35.182Z,84.24
2022-10-17T05:58:50.992Z,84.27
2022-10-17T06:04:29.083Z,83.93
2022-10-17T06:09:35.510Z,83.72
2022-10-17T06:14:43.001Z,84.09
2022-10-17T06:19:51.209Z,83.94
2022-10-17T06:24:57.400Z,83.77
2022-10-17T06:30:05.484Z,83.95
2022-10-17T06:35:11.853Z,83.97
2022-10-17T06:40:19.805Z,83.93
2022-10-17T06:45:27.561Z,83.39
2022-10-17T06:51:10.102Z,84.71
2022-10-17T06:56:26.257Z,85.97
2022-10-17T07:01:54.199Z,87.10
2022-10-17T07:07:03.912Z,87.61
2022-10-17T07:12:13.177Z,87.80
2022-10-17T07:17:25.104Z,89.06
2022-10-17T07:22:32.348Z,89.23
2022-10-17T07:27:39.019Z,89.59
2022-10-17T07:32:46.928Z,90.54
2022-10-17T07:37:53.323Z,90.41
2022-10-17T07:43:03.049Z,90.66
2022-10-17T07:48:11.617Z,90.33
2022-10-17T07:53:18.301Z,90.70
2022-10-17T07:58:24.446Z,89.82
2022-10-17T08:03:31.958Z,90.46
2022-10-17T08:08:37.966Z,89.99
2022-10-17T08:13:44.356Z,89.85
2022-10-17T08:18:51.882Z,89.73
2022-10-17T08:23:58.239Z,89.29
2022-10-17T08:29:04.314Z,89.20
2022-10-17T08:34:11.946Z,89.18
2022-10-17T08:39:19.221Z,88.71
2022-10-17T08:44:43.833Z,88.11
2022-10-17T08:49:54.604Z,88.51
2022-10-17T08:55:01.094Z,88.27
2022-10-17T09:00:20.050Z,88.26
2022-10-17T09:05:42.007Z,88.11
2022-10-17T09:10:58.361Z,87.05
2022-10-17T09:16:41.181Z,86.54
2022-10-17T09:21:53.557Z,87.05
2022-10-17T09:27:01.139Z,86.40
2022-10-17T09:32:16.883Z,86.16
2022-10-17T09:37:33.114Z,85.53
2022-10-17T09:42:39.503Z,85.18
2022-10-17T09:47:57.535Z,84.44
2022-10-17T09:53:15.378Z,84.47
2022-10-17T09:58:23.234Z,84.31
2022-10-17T10:03:32.261Z,82.94
2022-10-17T10:08:52.234Z,82.57
2022-10-17T10:14:12.865Z,82.46
2022-10-17T10:19:30.555Z,81.15
2022-10-17T10:24:38.893Z,81.00
2022-10-17T10:29:51.057Z,80.84
2022-10-17T10:35:00.938Z,81.04
2022-10-17T10:40:19.341Z,80.89
2022-10-17T10:45:47.014Z,80.31
2022-10-17T10:50:59.599Z,80.07
2022-10-17T10:56:15.672Z,79.82
2022-10-17T11:01:29.328Z,79.56
2022-10-17T11:06:39.652Z,77.19
2022-10-17T11:11:51.555Z,77.44
2022-10-17T11:17:07.299Z,77.12
2022-10-17T11:22:22.923Z,76.75
2022-10-17T11:27:35.424Z,76.48
2022-10-17T11:32:46.503Z,76.85
2022-10-17T11:38:02.052Z,76.50
2022-10-17T11:43:18.106Z,77.18
2022-10-17T11:48:28.120Z,77.06
2022-10-17T11:53:48.454Z,76.50
2022-10-17T11:59:09.878Z,75.84
2022-10-17T12:04:36.040Z,76.04
2022-10-17T12:09:48.534Z,76.46
2022-10-17T12:14:56.396Z,76.10
2022-10-17T12:20:41.643Z,75.64
2022-10-17T12:25:55.900Z,74.98
2022-10-17T12:31:10.336Z,75.89
2022-10-17T12:36:40.748Z,76.16
2022-10-17T12:41:56.556Z,76.00
2022-10-17T12:47:39.718Z,76.43
2022-10-17T12:53:08.515Z,75.76
2022-10-17T12:58:18.045Z,75.62
2022-10-17T13:03:28.851Z,76.27
2022-10-17T13:08:40.984Z,76.79
2022-10-17T13:13:50.165Z,75.93
2022-10-17T13:18:58.235Z,75.67
2022-10-17T13:24:21.010Z,75.87
2022-10-17T13:29:28.995Z,74.83
2022-10-17T13:34:36.677Z,75.46
2022-10-17T13:39:56.042Z,75.75
2022-10-17T13:45:05.186Z,76.33
2022-10-17T13:50:43.562Z,76.32
2022-10-17T13:56:26.363Z,76.94
2022-10-17T14:01:31.818Z,76.94
2022-10-17T14:06:48.001Z,76.83
2022-10-17T14:12:08.859Z,76.98
2022-10-17T14:17:24.213Z,76.51
2022-10-17T14:22:36.263Z,76.51
2022-10-17T14:28:02.704Z,76.28
2022-10-17T14:33:15.339Z,76.25
2022-10-17T14:38:24.293Z,76.28
2022-10-17T14:43:33.710Z,76.34
2022-10-17T14:48:39.795Z,77.10
2022-10-17T14:54:05.465Z,76.89
2022-10-17T14:59:15.651Z,77.10
2022-10-17T15:04:27.554Z,77.84
2022-10-17T15:09:35.381Z,78.96
2022-10-17T15:14:41.560Z,79.11
2022-10-17T15:19:47.969Z,79.47
2022-10-17T15:24:55.497Z,79.96
2022-10-17T15:30:01.582Z,80.38
2022-10-17T15:35:11.183Z,79.98
2022-10-17T15:40:22.429Z,80.28
2022-10-17T15:45:29.254Z,80.38
2022-10-17T15:50:35.905Z,80.82
2022-10-17T15:55:43.469Z,80.70
2022-10-17T16:00:50.427Z,81.29
2022-10-17T16:05:56.637Z,81.40
2022-10-17T16:11:04.285Z,81.61
2022-10-17T16:16:13.171Z,81.32
2022-10-17T16:21:21.135Z,81.69
2022-10-17T16:26:29.340Z,81.73
2022-10-17T16:31:38.123Z,81.93
2022-10-17T16:36:44.554Z,81.32
2022-10-17T16:41:54.800Z,80.94
2022-10-17T16:47:03.962Z,79.89
2022-10-17T16:52:10.310Z,79.93
2022-10-17T16:57:17.870Z,80.31
2022-10-17T17:02:24.073Z,79.97
2022-10-17T17:07:31.093Z,79.90
2022-10-17T17:12:39.446Z,79.70
2022-10-17T17:17:50.513Z,80.23
2022-10-17T17:22:58.657Z,80.06
2022-10-17T17:28:07.397Z,80.51
2022-10-17T17:33:15.191Z,80.12
2022-10-17T17:38:21.652Z,79.77
2022-10-17T17:43:30.107Z,80.00
2022-10-17T17:48:40.034Z,79.50
2022-10-17T17:53:47.726Z,79.29
2022-10-17T17:59:00.526Z,79.21
2022-10-17T18:04:10.140Z,78.94
2022-10-17T18:09:16.607Z,79.45
2022-10-17T18:14:26.337Z,79.93
2022-10-17T18:19:34.016Z,80.07
2022-10-17T18:24:42.149Z,80.36
2022-10-17T18:29:50.760Z,80.62
2022-10-17T18:34:57.820Z,80.62
2022-10-17T18:40:04.545Z,81.19
2022-10-17T18:45:13.913Z,81.05
2022-10-17T18:50:21.006Z,81.31
2022-10-17T18:55:28.064Z,81.37
2022-10-17T19:00:36.393Z,81.30
2022-10-17T19:05:45.512Z,81.38
2022-10-17T19:10:51.807Z,81.80
2022-10-17T19:15:59.417Z,81.15
2022-10-17T19:21:07.851Z,81.56
2022-10-17T19:26:15.350Z,81.50
2022-10-17T19:31:26.790Z,81.36
2022-10-17T19:36:37.055Z,81.61
2022-10-17T19:41:44.216Z,81.77
2022-10-17T19:46:52.303Z,81.07
2022-10-17T19:51:58.542Z,80.98
2022-10-17T19:57:09.486Z,80.64
2022-10-17T20:02:18.240Z,80.47
2022-10-17T20:07:24.670Z,80.36
2022-10-17T20:12:31.511Z,79.54
2022-10-17T20:17:39.823Z,79.31
2022-10-17T20:22:46.020Z,79.09
2022-10-17T20:27:52.229Z,79.30
2022-10-17T20:33:00.161Z,80.31
2022-10-17T20:38:06.492Z,80.38
2022-10-17T20:43:14.525Z,80.29
2022-10-17T20:48:23.637Z,79.90
2022-10-17T20:53:37.032Z,79.21
2022-10-17T20:58:43.672Z,79.02
2022-10-17T21:03:52.689Z,77.20
2022-10-17T21:08:59.188Z,78.87
2022-10-17T21:14:08.240Z,78.83
2022-10-17T21:19:17.674Z,78.96
2022-10-17T21:24:23.561Z,78.81
2022-10-17T21:29:29.666Z,79.42
2022-10-17T21:34:37.399Z,79.43
2022-10-17T21:39:43.751Z,78.85
2022-10-17T21:44:50.294Z,79.12
2022-10-17T21:49:57.872Z,78.76
2022-10-17T21:55:03.725Z,77.86
2022-10-17T22:00:12.384Z,78.47
2022-10-17T22:05:19.833Z,78.81
2022-10-17T22:10:25.830Z,78.75
2022-10-17T22:15:32.555Z,78.64
2022-10-17T22:20:40.115Z,78.75
2022-10-17T22:25:53.873Z,78.62
2022-10-17T22:31:00.310Z,78.63
2022-10-17T22:36:09.218Z,78.64
2022-10-17T22:41:15.975Z,78.97
2022-10-17T22:46:21.791Z,79.10
2022-10-17T22:51:29.421Z,79.61
2022-10-17T22:56:36.002Z,79.97
2022-10-17T23:01:42.229Z,79.67
2022-10-17T23:06:49.563Z,79.65
2022-10-17T23:11:55.516Z,79.58
2022-10-17T23:17:01.653Z,79.79
2022-10-17T23:22:09.962Z,79.76
2022-10-17T23:27:18.326Z,79.82
2022-10-17T23:32:24.290Z,79.61
2022-10-17T23:37:32.215Z,79.79
2022-10-17T23:42:38.688Z,79.73
2022-10-17T23:47:44.773Z,79.90
2022-10-17T23:52:52.013Z,79.68
2022-10-17T23:57:57.782Z,79.17
